createdAt,value
2024-01-15T00:01:17.691Z,38.00
2024-01-15T00:03:48.124Z,26.40
2024-01-15T00:06:16.833Z,32.40
2024-01-15T00:08:45.271Z,31.17
2024-01-15T00:11:13.619Z,36.13
2024-01-15T00:13:42.476Z,34.93
2024-01-15T00:16:11.503Z,33.83
2024-01-15T00:18:41.380Z,36.17
2024-01-15T00:21:09.779Z,33.07
2024-01-15T00:23:38.119Z,37.70
2024-01-15T00:26:08.683Z,34.40
2024-01-15T00:28:39.108Z,36.37
2024-01-15T00:31:07.872Z,30.37
2024-01-15T00:33:36.577Z,29.80
2024-01-15T00:36:07.086Z,36.23
2024-01-15T00:38:35.508Z,37.60
2024-01-15T00:41:04.105Z,46.90
2024-01-15T00:43:32.396Z,40.97
2024-01-15T00:46:00.839Z,38.97
2024-01-15T00:48:29.253Z,36.57
2024-01-15T00:50:57.658Z,44.53
2024-01-15T00:53:28.308Z,33.63
2024-01-15T00:55:56.735Z,37.87
2024-01-15T00:58:25.084Z,43.73
2024-01-15T01:00:53.564Z,40.10
2024-01-15T01:03:22.158Z,39.83
2024-01-15T01:05:51.864Z,33.33
2024-01-15T01:08:20.230Z,34.83
2024-01-15T01:10:50.042Z,30.93
2024-01-15T01:13:18.450Z,40.60
2024-01-15T01:15:47.046Z,45.63
2024-01-15T01:18:15.660Z,44.97
2024-01-15T01:20:44.168Z,47.27
2024-01-15T01:23:12.590Z,43.03
2024-01-15T01:25:41.028Z,36.73
2024-01-15T01:28:10.871Z,39.97
2024-01-15T01:30:39.293Z,43.30
2024-01-15T01:33:07.883Z,47.10
2024-01-15T01:35:36.387Z,39.87
2024-01-15T01:38:04.737Z,36.63
2024-01-15T01:40:33.080Z,40.87
2024-01-15T01:43:01.468Z,43.70
2024-01-15T01:45:31.447Z,32.50
2024-01-15T01:48:00.090Z,29.17
2024-01-15T01:50:28.252Z,25.63
2024-01-15T01:52:56.628Z,44.03
2024-01-15T01:55:27.494Z,40.30
2024-01-15T01:57:56.669Z,40.17
2024-01-15T02:00:25.555Z,38.33
2024-01-15T02:02:55.616Z,42.30
2024-01-15T02:05:25.537Z,46.60
2024-01-15T02:07:53.961Z,33.57
2024-01-15T02:10:22.267Z,44.90
2024-01-15T02:12:50.601Z,42.10
2024-01-15T02:15:19.234Z,40.27
2024-01-15T02:18:02.580Z,35.73
2024-01-15T02:20:31.465Z,33.90
2024-01-15T02:23:07.399Z,27.87
2024-01-15T02:25:35.730Z,37.30
2024-01-15T02:28:04.276Z,36.37
2024-01-15T02:30:33.125Z,40.23
2024-01-15T02:33:01.573Z,33.43
2024-01-15T02:35:30.032Z,38.60
2024-01-15T02:37:58.411Z,26.40
2024-01-15T02:40:28.181Z,37.23
2024-01-15T02:42:56.669Z,34.37
2024-01-15T02:45:25.175Z,31.67
2024-01-15T02:47:53.552Z,32.00
2024-01-15T02:50:21.039Z,42.23
2024-01-15T02:52:49.310Z,33.67
2024-01-15T02:55:17.714Z,28.23
2024-01-15T02:57:47.645Z,27.33
2024-01-15T03:00:16.709Z,24.17
2024-01-15T03:02:48.907Z,31.43
2024-01-15T03:05:16.877Z,30.70
2024-01-15T03:07:45.330Z,30.53
2024-01-15T03:10:13.672Z,25.77
2024-01-15T03:12:42.097Z,39.77
2024-01-15T03:15:12.231Z,33.87
2024-01-15T03:17:40.612Z,21.50
2024-01-15T03:20:09.493Z,27.60
2024-01-15T03:22:38.019Z,30.57
2024-01-15T03:25:06.648Z,30.93
2024-01-15T03:27:35.352Z,26.53
2024-01-15T03:30:04.466Z,26.77
2024-01-15T03:32:34.397Z,23.23
2024-01-15T03:35:02.964Z,24.40
2024-01-15T03:37:31.377Z,28.33
2024-01-15T03:40:00.033Z,26.07
2024-01-15T03:42:28.463Z,32.50
2024-01-15T03:44:56.965Z,23.53
2024-01-15T03:47:25.493Z,21.80
2024-01-15T03:49:55.355Z,24.90
2024-01-15T03:52:23.833Z,32.07
2024-01-15T03:54:52.344Z,26.77
2024-01-15T03:57:20.824Z,27.87
2024-01-15T03:59:49.297Z,29.40
2024-01-15T04:02:17.771Z,25.80
2024-01-15T04:04:46.609Z,24.43
2024-01-15T04:07:16.643Z,29.00
2024-01-15T04:09:45.062Z,22.83
2024-01-15T04:12:13.601Z,29.97
2024-01-15T04:14:41.962Z,21.07
2024-01-15T04:17:09.927Z,20.77
2024-01-15T04:19:38.306Z,22.70
2024-01-15T04:22:06.979Z,30.67
2024-01-15T04:24:36.702Z,23.90
2024-01-15T04:27:05.170Z,23.17
2024-01-15T04:29:33.465Z,32.63
2024-01-15T04:32:01.975Z,20.60
2024-01-15T04:34:30.537Z,26.97
2024-01-15T04:36:59.068Z,17.20
2024-01-15T04:39:27.442Z,17.67
2024-01-15T04:41:57.190Z,17.20
2024-01-15T04:44:25.575Z,22.90
2024-01-15T04:46:54.322Z,20.77
2024-01-15T04:49:22.834Z,24.30
2024-01-15T04:51:51.351Z,22.97
2024-01-15T04:54:19.773Z,22.53
2024-01-15T04:56:48.158Z,23.00
2024-01-15T04:59:17.829Z,17.57
2024-01-15T05:01:46.219Z,25.90
2024-01-15T05:04:14.646Z,22.93
2024-01-15T05:06:43.066Z,21.20
2024-01-15T05:09:11.414Z,22.03
2024-01-15T05:11:39.775Z,19.83
2024-01-15T05:14:08.089Z,19.93
2024-01-15T05:16:37.989Z,19.53
2024-01-15T05:19:06.368Z,12.83
2024-01-15T05:21:34.791Z,17.10
2024-01-15T05:24:03.161Z,20.40
2024-01-15T05:26:31.487Z,22.27
2024-01-15T05:28:59.879Z,21.40
2024-01-15T05:31:28.470Z,20.33
2024-01-15T05:33:58.333Z,21.40
2024-01-15T05:36:26.672Z,18.80
2024-01-15T05:38:55.131Z,25.20
2024-01-15T05:41:23.606Z,19.03
2024-01-15T05:43:52.024Z,20.10
2024-01-15T05:46:20.376Z,18.13
2024-01-15T05:48:48.820Z,21.50
2024-01-15T05:51:18.591Z,14.83
2024-01-15T05:53:48.523Z,27.13
2024-01-15T05:56:18.087Z,19.00
2024-01-15T05:58:46.397Z,21.17
2024-01-15T06:01:14.824Z,14.17
2024-01-15T06:03:43.263Z,18.00
2024-01-15T06:06:11.778Z,17.90
2024-01-15T06:08:41.982Z,13.97
2024-01-15T06:11:10.336Z,15.03
2024-01-15T06:13:38.640Z,18.87
2024-01-15T06:16:14.449Z,19.50
2024-01-15T06:18:42.974Z,18.13
2024-01-15T06:21:13.777Z,21.30
2024-01-15T06:23:43.554Z,20.10
2024-01-15T06:26:11.912Z,17.47
2024-01-15T06:28:40.192Z,17.47
2024-01-15T06:31:09.223Z,16.63
2024-01-15T06:33:37.810Z,28.07
2024-01-15T06:36:06.547Z,17.10
2024-01-15T06:38:34.586Z,20.07
2024-01-15T06:41:04.543Z,27.10
2024-01-15T06:43:32.894Z,17.03
2024-01-15T06:46:04.212Z,21.17
2024-01-15T06:48:34.741Z,22.60
2024-01-15T06:51:03.076Z,18.37
2024-01-15T06:53:31.389Z,23.93
2024-01-15T06:55:59.723Z,22.30
2024-01-15T06:58:29.436Z,20.63
2024-01-15T07:00:57.632Z,21.30
2024-01-15T07:03:26.283Z,23.03
2024-01-15T07:05:54.631Z,19.30
2024-01-15T07:08:22.931Z,19.20
2024-01-15T07:10:51.202Z,26.23
2024-01-15T07:13:19.662Z,18.93
2024-01-15T07:15:49.637Z,14.53
2024-01-15T07:18:18.093Z,20.13
2024-01-15T07:20:46.533Z,19.57
2024-01-15T07:23:14.856Z,18.60
2024-01-15T07:25:43.492Z,27.23
2024-01-15T07:28:12.196Z,21.17
2024-01-15T07:30:40.693Z,20.67
2024-01-15T07:33:10.574Z,20.67
2024-01-15T07:35:39.457Z,20.40
2024-01-15T07:38:07.971Z,16.77
2024-01-15T07:40:36.591Z,26.77
2024-01-15T07:43:04.954Z,17.43
2024-01-15T07:45:33.747Z,17.03
2024-01-15T07:48:02.270Z,18.87
2024-01-15T07:50:32.039Z,20.13
2024-01-15T07:53:00.344Z,20.03
2024-01-15T07:55:28.317Z,21.57
2024-01-15T07:58:06.786Z,22.53
2024-01-15T08:00:43.872Z,26.50
2024-01-15T08:03:12.537Z,20.10
2024-01-15T08:05:42.336Z,20.73
2024-01-15T08:08:10.726Z,22.80
2024-01-15T08:10:39.105Z,24.07
2024-01-15T08:13:09.056Z,20.70
2024-01-15T08:15:37.524Z,16.43
2024-01-15T08:18:06.434Z,20.33
2024-01-15T08:20:34.900Z,22.50
2024-01-15T08:23:04.791Z,23.00
2024-01-15T08:25:33.242Z,21.20
2024-01-15T08:28:01.811Z,21.50
2024-01-15T08:30:30.255Z,23.53
2024-01-15T08:33:04.746Z,20.33
2024-01-15T08:35:37.107Z,25.47
2024-01-15T08:38:07.074Z,21.43
2024-01-15T08:40:35.386Z,21.10
2024-01-15T08:43:04.233Z,20.83
2024-01-15T08:45:32.944Z,18.63
2024-01-15T08:48:02.239Z,22.27
2024-01-15T08:50:30.717Z,22.20
2024-01-15T08:52:58.720Z,19.07
2024-01-15T08:55:28.466Z,24.90
2024-01-15T08:57:56.799Z,18.63
2024-01-15T09:00:25.260Z,22.43
2024-01-15T09:02:53.669Z,25.87
2024-01-15T09:05:22.013Z,22.37
2024-01-15T09:07:52.523Z,20.03
2024-01-15T09:10:21.187Z,21.57
2024-01-15T09:12:51.243Z,20.07
2024-01-15T09:15:20.267Z,18.13
2024-01-15T09:17:48.926Z,17.07
2024-01-15T09:20:17.257Z,18.93
2024-01-15T09:22:46.528Z,18.37
2024-01-15T09:25:15.194Z,15.70
2024-01-15T09:27:43.563Z,10.73
2024-01-15T09:30:14.135Z,19.17
2024-01-15T09:32:42.576Z,18.73
2024-01-15T09:35:11.154Z,12.97
2024-01-15T09:37:46.909Z,14.10
2024-01-15T09:40:17.405Z,18.70
2024-01-15T09:42:46.467Z,12.13
2024-01-15T09:45:16.591Z,19.73
2024-01-15T09:47:46.530Z,18.27
2024-01-15T09:50:17.133Z,21.33
2024-01-15T09:52:46.989Z,21.03
2024-01-15T09:55:17.063Z,20.37
2024-01-15T09:57:47.203Z,18.73
2024-01-15T10:00:17.630Z,21.27
2024-01-15T10:02:45.932Z,17.23
2024-01-15T10:05:14.247Z,16.97
2024-01-15T10:07:43.300Z,17.50
2024-01-15T10:10:14.017Z,18.80
2024-01-15T10:12:42.504Z,16.93
2024-01-15T10:15:13.086Z,14.73
2024-01-15T10:17:43.120Z,15.00
2024-01-15T10:20:13.328Z,17.37
2024-01-15T10:22:43.572Z,13.57
2024-01-15T10:25:15.748Z,16.40
2024-01-15T10:27:44.104Z,15.37
2024-01-15T10:30:14.608Z,16.57
2024-01-15T10:32:44.416Z,18.73
2024-01-15T10:35:13.231Z,15.70
2024-01-15T10:37:41.835Z,16.17
2024-01-15T10:40:10.834Z,14.17
2024-01-15T10:42:39.246Z,14.73
2024-01-15T10:45:10.130Z,13.60
2024-01-15T10:47:38.394Z,12.43
2024-01-15T10:50:09.373Z,11.50
2024-01-15T10:52:38.143Z,12.90
2024-01-15T10:55:11.022Z,11.53
2024-01-15T10:57:42.921Z,11.97
2024-01-15T11:00:16.283Z,11.63
2024-01-15T11:02:46.055Z,10.87
2024-01-15T11:05:18.625Z,10.77
2024-01-15T11:07:47.171Z,16.03
2024-01-15T11:10:30.392Z,7.90
2024-01-15T11:12:58.794Z,7.37
2024-01-15T11:15:30.298Z,7.20
2024-01-15T11:18:02.469Z,7.67
2024-01-15T11:20:33.683Z,7.77
2024-01-15T11:23:02.195Z,13.77
2024-01-15T11:25:39.485Z,10.60
2024-01-15T11:28:07.986Z,6.63
2024-01-15T11:30:37.957Z,13.70
2024-01-15T11:33:08.552Z,8.67
2024-01-15T11:35:57.908Z,11.13
2024-01-15T11:38:30.357Z,6.93
2024-01-15T11:40:59.227Z,7.00
2024-01-15T11:43:27.531Z,7.23
2024-01-15T11:45:55.960Z,8.43
2024-01-15T11:48:27.928Z,8.27
2024-01-15T11:50:56.294Z,6.93
2024-01-15T11:53:30.925Z,7.23
2024-01-15T11:56:02.130Z,10.87
2024-01-15T11:58:30.522Z,9.07
2024-01-15T12:00:59.116Z,9.10
2024-01-15T12:03:27.704Z,7.53
2024-01-15T12:05:56.161Z,8.97
2024-01-15T12:08:25.141Z,12.17
2024-01-15T12:10:53.709Z,7.47
2024-01-15T12:13:23.483Z,8.87
2024-01-15T12:15:51.957Z,11.53
2024-01-15T12:18:21.594Z,11.40
2024-01-15T12:20:50.989Z,5.67
2024-01-15T12:23:19.836Z,12.03
2024-01-15T12:25:48.588Z,12.80
2024-01-15T12:28:17.592Z,7.10
2024-01-15T12:30:51.410Z,4.83
2024-01-15T12:33:21.540Z,8.67
2024-01-15T12:35:50.027Z,8.20
2024-01-15T12:38:18.327Z,6.00
2024-01-15T12:40:48.404Z,4.33
2024-01-15T12:43:16.831Z,4.10
2024-01-15T12:45:45.144Z,6.27
2024-01-15T12:48:16.869Z,9.47
2024-01-15T12:50:46.646Z,5.67
2024-01-15T12:53:14.976Z,5.67
2024-01-15T12:55:43.247Z,10.73
2024-01-15T12:58:11.641Z,7.87
2024-01-15T13:00:39.709Z,3.00
2024-01-15T13:03:08.121Z,5.37
2024-01-15T13:05:38.648Z,4.87
2024-01-15T13:08:07.466Z,4.77
2024-01-15T13:10:35.831Z,2.73
2024-01-15T13:13:04.278Z,4.83
2024-01-15T13:15:32.829Z,2.53
2024-01-15T13:18:01.409Z,3.40
2024-01-15T13:20:29.892Z,3.67
2024-01-15T13:22:59.593Z,4.90
2024-01-15T13:25:27.846Z,3.03
2024-01-15T13:27:56.238Z,5.13
2024-01-15T13:30:24.665Z,3.43
2024-01-15T13:32:53.654Z,12.37
2024-01-15T13:35:22.009Z,4.73
2024-01-15T13:37:50.331Z,5.53
2024-01-15T13:40:21.253Z,4.53
2024-01-15T13:42:49.949Z,4.57
2024-01-15T13:45:18.991Z,5.23
2024-01-15T13:47:47.414Z,5.47
2024-01-15T13:50:15.833Z,5.80
2024-01-15T13:52:44.305Z,6.10
2024-01-15T13:55:12.723Z,5.30
2024-01-15T13:57:42.564Z,6.20
2024-01-15T14:00:13.606Z,5.30
2024-01-15T14:02:42.966Z,4.87
2024-01-15T14:05:13.764Z,11.13
2024-01-15T14:07:42.741Z,5.13
2024-01-15T14:10:11.497Z,4.93
2024-01-15T14:12:40.775Z,2.53
2024-01-15T14:15:11.264Z,5.77
2024-01-15T14:17:40.392Z,1.63
2024-01-15T14:20:11.160Z,4.00
2024-01-15T14:22:39.685Z,3.90
2024-01-15T14:25:08.157Z,5.17
2024-01-15T14:27:37.508Z,4.00
2024-01-15T14:30:07.090Z,1.57
2024-01-15T14:32:37.000Z,5.93
2024-01-15T14:35:06.317Z,1.57
2024-01-15T14:37:34.673Z,8.07
2024-01-15T14:40:03.741Z,2.43
2024-01-15T14:42:32.152Z,1.67
2024-01-15T14:45:00.600Z,2.17
2024-01-15T14:47:28.972Z,2.70
2024-01-15T14:49:58.847Z,4.23
2024-01-15T14:52:27.236Z,3.97
2024-01-15T14:54:55.567Z,7.53
2024-01-15T14:57:24.003Z,2.63
2024-01-15T14:59:52.498Z,3.23
2024-01-15T15:02:21.326Z,5.07
2024-01-15T15:04:50.321Z,7.60
2024-01-15T15:07:19.977Z,3.53
2024-01-15T15:09:48.163Z,1.20
2024-01-15T15:12:16.796Z,3.07
2024-01-15T15:14:55.815Z,2.37
2024-01-15T15:17:28.581Z,4.20
2024-01-15T15:19:57.252Z,3.80
2024-01-15T15:22:27.143Z,4.90
2024-01-15T15:24:56.222Z,3.03
2024-01-15T15:27:24.610Z,8.30
2024-01-15T15:29:52.989Z,4.17
2024-01-15T15:32:21.317Z,2.30
2024-01-15T15:34:49.988Z,3.33
2024-01-15T15:37:18.900Z,2.30
2024-01-15T15:39:48.698Z,4.20
2024-01-15T15:42:17.205Z,1.80
2024-01-15T15:44:47.671Z,1.60
2024-01-15T15:47:16.743Z,3.20
2024-01-15T15:49:45.857Z,4.27
2024-01-15T15:52:14.364Z,3.10
2024-01-15T15:54:42.773Z,8.87
2024-01-15T15:57:12.962Z,3.13
2024-01-15T15:59:41.242Z,1.30
2024-01-15T16:02:09.677Z,1.63
2024-01-15T16:04:38.304Z,3.50
2024-01-15T16:07:10.943Z,3.17
2024-01-15T16:09:40.954Z,3.63
2024-01-15T16:12:09.506Z,1.47
2024-01-15T16:14:39.309Z,5.27
2024-01-15T16:23:14.480Z,6.60
2024-01-15T16:23:27.996Z,6.87
2024-01-15T16:23:43.545Z,1.80
2024-01-15T16:25:32.805Z,1.23
2024-01-15T16:28:01.415Z,7.83
2024-01-15T16:30:37.443Z,7.30
2024-01-15T16:33:13.633Z,2.17
2024-01-15T16:35:42.119Z,5.27
2024-01-15T16:38:10.713Z,3.50
2024-01-15T16:40:40.397Z,1.63
2024-01-15T16:43:09.827Z,7.07
2024-01-15T16:45:39.712Z,1.20
2024-01-15T16:48:08.603Z,6.40
2024-01-15T16:50:36.540Z,6.83
2024-01-15T16:53:04.980Z,6.00
2024-01-15T16:55:33.310Z,5.50
2024-01-15T16:58:01.612Z,3.13
2024-01-15T17:00:29.953Z,4.43
2024-01-15T17:02:59.653Z,6.30
2024-01-15T17:05:28.202Z,4.60
2024-01-15T17:07:56.668Z,5.37
2024-01-15T17:10:25.002Z,4.17
2024-01-15T17:12:53.311Z,6.10
2024-01-15T17:15:21.742Z,9.43
2024-01-15T17:17:50.151Z,4.03
2024-01-15T17:20:20.027Z,7.40
2024-01-15T17:22:48.469Z,2.33
2024-01-15T17:25:16.769Z,2.40
2024-01-15T17:27:45.072Z,9.30
2024-01-15T17:30:13.622Z,2.43
2024-01-15T17:32:41.959Z,11.70
2024-01-15T17:35:10.746Z,7.63
2024-01-15T17:37:40.457Z,8.40
2024-01-15T17:40:10.879Z,7.03
2024-01-15T17:42:39.292Z,3.77
2024-01-15T17:45:08.622Z,3.90
2024-01-15T17:47:37.183Z,8.73
2024-01-15T17:50:05.709Z,8.73
2024-01-15T17:52:34.083Z,7.83
2024-01-15T17:55:03.877Z,10.83
2024-01-15T17:57:32.178Z,6.63
2024-01-15T18:00:00.557Z,6.80
2024-01-15T18:02:28.903Z,9.47
2024-01-15T18:04:57.492Z,14.07
2024-01-15T18:07:27.335Z,6.77
2024-01-15T18:09:56.521Z,9.83
2024-01-15T18:12:26.723Z,8.23
2024-01-15T18:14:55.540Z,7.43
2024-01-15T18:17:24.526Z,7.63
2024-01-15T18:19:52.964Z,9.17
2024-01-15T18:22:21.502Z,8.67
2024-01-15T18:24:50.161Z,8.63
2024-01-15T18:27:19.104Z,10.63
2024-01-15T18:29:48.936Z,15.60
2024-01-15T18:32:17.323Z,8.43
2024-01-15T18:34:45.708Z,12.60
2024-01-15T18:37:14.006Z,14.47
2024-01-15T18:39:45.037Z,16.87
2024-01-15T18:42:13.727Z,11.77
2024-01-15T18:44:42.740Z,15.20
2024-01-15T18:47:12.661Z,13.97
2024-01-15T18:49:41.030Z,10.57
2024-01-15T18:52:09.304Z,11.90
2024-01-15T18:54:37.670Z,13.27
2024-01-15T18:57:06.549Z,13.53
2024-01-15T18:59:36.732Z,11.40
2024-01-15T19:02:05.158Z,20.27
2024-01-15T19:04:34.855Z,8.60
2024-01-15T19:07:03.336Z,12.23
2024-01-15T19:09:31.679Z,6.87
2024-01-15T19:11:59.968Z,7.07
2024-01-15T19:14:28.410Z,6.90
2024-01-15T19:16:57.877Z,3.67
2024-01-15T19:19:26.235Z,4.33
2024-01-15T19:21:55.902Z,9.37
2024-01-15T19:24:24.205Z,3.77
2024-01-15T19:26:54.806Z,2.20
2024-01-15T19:29:23.103Z,3.00
2024-01-15T19:31:51.822Z,6.40
2024-01-15T19:34:20.177Z,3.77
2024-01-15T19:36:48.533Z,6.30
2024-01-15T19:39:18.257Z,3.87
2024-01-15T19:41:46.577Z,3.03
2024-01-15T19:44:14.893Z,3.87
2024-01-15T19:46:43.201Z,5.97
2024-01-15T19:49:11.572Z,7.10
2024-01-15T19:51:40.384Z,5.30
2024-01-15T19:54:08.768Z,2.20
2024-01-15T19:56:39.057Z,2.53
2024-01-15T19:59:07.699Z,9.80
2024-01-15T20:01:35.940Z,1.57
2024-01-15T20:04:04.986Z,5.43
2024-01-15T20:06:33.588Z,2.47
2024-01-15T20:09:02.028Z,4.57
2024-01-15T20:11:30.582Z,5.60
2024-01-15T20:14:00.504Z,3.97
2024-01-15T20:16:29.083Z,7.70
2024-01-15T20:18:59.110Z,2.13
2024-01-15T20:21:28.596Z,9.13
2024-01-15T20:24:01.383Z,7.47
2024-01-15T20:26:32.350Z,4.10
2024-01-15T20:29:02.093Z,7.57
2024-01-15T20:31:30.514Z,1.87
2024-01-15T20:33:58.944Z,8.80
2024-01-15T20:36:27.310Z,10.93
2024-01-15T20:38:55.970Z,3.77
2024-01-15T20:41:25.850Z,14.43
2024-01-15T20:43:54.325Z,5.33
2024-01-15T20:46:24.506Z,8.30
2024-01-15T20:48:53.348Z,8.27
2024-01-15T20:51:21.924Z,6.07
2024-01-15T20:53:50.747Z,12.30
2024-01-15T20:56:19.353Z,10.87
2024-01-15T20:58:47.735Z,4.23
2024-01-15T21:01:18.738Z,8.80
2024-01-15T21:03:48.568Z,12.40
2024-01-15T21:06:17.073Z,7.77
2024-01-15T21:08:46.598Z,4.13
2024-01-15T21:11:15.734Z,7.07
2024-01-15T21:13:44.281Z,10.73
2024-01-15T21:16:13.316Z,10.47
2024-01-15T21:18:41.863Z,2.57
2024-01-15T21:21:12.035Z,8.13
2024-01-15T21:23:41.645Z,7.70
2024-01-15T21:26:10.826Z,6.60
2024-01-15T21:28:39.145Z,10.97
2024-01-15T21:31:07.633Z,11.73
2024-01-15T21:33:38.304Z,8.27
2024-01-15T21:36:07.163Z,6.03
2024-01-15T21:38:37.012Z,5.90
2024-01-15T21:41:05.411Z,7.53
2024-01-15T21:43:33.866Z,8.90
2024-01-15T21:46:02.574Z,5.40
2024-01-15T21:48:31.058Z,10.37
2024-01-15T21:50:59.489Z,8.23
2024-01-15T21:53:27.881Z,7.53
2024-01-15T21:55:57.812Z,11.93
2024-01-15T21:58:26.159Z,12.17
2024-01-15T22:00:54.537Z,6.30
2024-01-15T22:03:23.084Z,6.03
2024-01-15T22:05:54.013Z,6.23
2024-01-15T22:08:24.188Z,7.37
2024-01-15T22:10:54.257Z,4.90
2024-01-15T22:13:24.073Z,8.23
2024-01-15T22:15:52.375Z,4.33
2024-01-15T22:18:21.279Z,12.83
2024-01-15T22:20:49.742Z,8.40
2024-01-15T22:23:18.208Z,2.70
2024-01-15T22:25:46.605Z,6.60
2024-01-15T22:28:14.952Z,3.53
2024-01-15T22:30:44.903Z,7.40
2024-01-15T22:33:13.397Z,4.30
2024-01-15T22:35:41.872Z,11.73
2024-01-15T22:38:10.239Z,7.47
2024-01-15T22:40:38.696Z,3.63
2024-01-15T22:43:07.038Z,6.97
2024-01-15T22:45:35.687Z,3.53
2024-01-15T22:48:05.585Z,4.90
2024-01-15T22:50:34.178Z,2.67
2024-01-15T22:53:03.062Z,5.87
2024-01-15T22:55:31.440Z,5.57
2024-01-15T22:57:59.742Z,8.80
2024-01-15T23:00:29.661Z,6.70
2024-01-15T23:02:59.986Z,13.67
2024-01-15T23:05:29.983Z,7.83
2024-01-15T23:07:58.875Z,4.60
2024-01-15T23:10:27.230Z,8.40
2024-01-15T23:12:55.325Z,3.77
2024-01-15T23:15:24.458Z,6.40
2024-01-15T23:17:53.193Z,4.33
2024-01-15T23:20:21.811Z,5.80
2024-01-15T23:22:51.856Z,6.10
2024-01-15T23:25:20.307Z,11.40
2024-01-15T23:27:49.290Z,6.10
2024-01-15T23:30:17.819Z,16.03
2024-01-15T23:32:47.023Z,10.67
2024-01-15T23:35:16.620Z,4.90
2024-01-15T23:37:44.963Z,8.40
2024-01-15T23:40:15.069Z,9.13
2024-01-15T23:42:43.511Z,8.13
2024-01-15T23:45:12.422Z,10.00
2024-01-15T23:47:40.784Z,5.60
2024-01-15T23:50:09.483Z,6.67
2024-01-15T23:52:38.358Z,9.40
2024-01-15T23:55:07.216Z,7.83
2024-01-15T23:57:37.086Z,9.33
